createdAt,value
2019-01-13T00:04:02.439Z,94.16
2019-01-13T00:09:12.965Z,94.28
2019-01-13T00:14:26.877Z,94.83
2019-01-13T00:19:34.563Z,94.82
2019-01-13T00:24:42.315Z,94.94
2019-01-13T00:29:52.066Z,94.67
2019-01-13T00:35:04.709Z,94.80
2019-01-13T00:40:18.413Z,94.86
2019-01-13T00:45:29.127Z,95.12
2019-01-13T00:50:40.164Z,95.09
2019-01-13T00:55:49.412Z,94.90
2019-01-13T01:00:58.032Z,95.20
2019-01-13T01:06:04.623Z,95.74
2019-01-13T01:11:16.930Z,96.43
2019-01-13T01:16:28.747Z,96.73
2019-01-13T01:21:38.661Z,97.04
2019-01-13T01:26:48.644Z,97.70
2019-01-13T01:32:01.308Z,97.97
2019-01-13T01:37:10.980Z,98.42
2019-01-13T01:42:18.638Z,98.68
2019-01-13T01:47:32.260Z,99.10
2019-01-13T01:52:44.326Z,99.10
2019-01-13T01:58:01.931Z,99.17
2019-01-13T02:03:12.628Z,99.29
2019-01-13T02:08:19.441Z,99.32
2019-01-13T02:13:25.842Z,99.24
2019-01-13T02:18:37.455Z,98.92
2019-01-13T02:23:46.474Z,98.87
2019-01-13T02:28:56.279Z,98.96
2019-01-13T02:34:07.074Z,98.33
2019-01-13T02:39:14.860Z,98.28
2019-01-13T02:44:23.992Z,97.81
2019-01-13T02:49:32.856Z,98.74
2019-01-13T02:54:44.919Z,99.14
2019-01-13T02:59:56.592Z,99.36
2019-01-13T03:05:05.713Z,99.52
2019-01-13T03:10:23.597Z,99.78
2019-01-13T03:15:34.461Z,99.70
2019-01-13T03:20:44.516Z,99.93
2019-01-13T03:25:54.409Z,99.96
2019-01-13T03:31:11.762Z,100.00
2019-01-13T03:36:15.464Z,100.00
2019-01-13T03:41:27.947Z,100.00
2019-01-13T03:46:39.822Z,100.00
2019-01-13T03:51:55.207Z,100.00
2019-01-13T03:57:03.443Z,100.00
2019-01-13T04:02:12.869Z,99.75
2019-01-13T04:07:30.288Z,99.83
2019-01-13T04:12:39.243Z,99.67
2019-01-13T04:17:49.902Z,99.54
2019-01-13T04:22:56.935Z,99.47
2019-01-13T04:28:08.550Z,99.25
2019-01-13T04:33:17.394Z,99.36
2019-01-13T04:38:24.841Z,99.36
2019-01-13T04:43:34.655Z,99.51
2019-01-13T04:48:44.454Z,99.76
2019-01-13T04:53:52.874Z,99.82
2019-01-13T04:59:02.966Z,99.90
2019-01-13T05:04:11.446Z,100.00
2019-01-13T05:10:34.053Z,100.00
2019-01-13T05:15:45.771Z,100.00
2019-01-13T05:20:54.671Z,100.00
2019-01-13T05:26:07.241Z,100.00
2019-01-13T05:31:18.828Z,100.00
2019-01-13T05:36:27.822Z,100.00
2019-01-13T05:41:40.402Z,100.00
2019-01-13T05:46:48.674Z,100.00
2019-01-13T05:52:00.262Z,100.00
2019-01-13T05:57:13.474Z,100.00
2019-01-13T06:02:21.595Z,100.00
2019-01-13T06:07:29.147Z,100.00
2019-01-13T06:12:39.109Z,100.00
2019-01-13T06:17:48.387Z,100.00
2019-01-13T06:22:54.922Z,100.00
2019-01-13T06:28:04.610Z,99.99
2019-01-13T06:33:13.912Z,99.87
2019-01-13T06:38:23.783Z,99.84
2019-01-13T06:43:30.599Z,99.56
2019-01-13T06:48:39.138Z,99.58
2019-01-13T06:53:48.915Z,99.53
2019-01-13T06:58:56.403Z,99.50
2019-01-13T07:04:09.763Z,99.41
2019-01-13T07:09:21.319Z,99.26
2019-01-13T07:14:32.894Z,98.84
2019-01-13T07:19:44.490Z,99.18
2019-01-13T07:24:51.313Z,98.93
2019-01-13T07:30:03.813Z,99.14
2019-01-13T07:35:15.308Z,99.04
2019-01-13T07:40:30.883Z,98.91
2019-01-13T07:45:37.589Z,98.86
2019-01-13T07:50:47.155Z,98.49
2019-01-13T07:56:01.347Z,98.68
2019-01-13T08:01:11.999Z,98.21
2019-01-13T08:06:21.710Z,98.20
2019-01-13T08:11:31.427Z,98.05
2019-01-13T08:16:42.052Z,97.65
2019-01-13T08:21:52.674Z,97.49
2019-01-13T08:27:02.952Z,97.76
2019-01-13T08:32:11.938Z,97.13
2019-01-13T08:37:22.597Z,97.19
2019-01-13T08:42:34.473Z,97.31
2019-01-13T08:47:41.738Z,96.80
2019-01-13T08:52:50.894Z,96.83
2019-01-13T08:58:08.677Z,96.81
2019-01-13T09:03:18.547Z,96.25
2019-01-13T09:08:30.212Z,96.02
2019-01-13T09:13:40.398Z,95.90
2019-01-13T09:18:53.668Z,96.09
2019-01-13T09:24:02.531Z,96.11
2019-01-13T09:29:15.020Z,95.83
2019-01-13T09:34:26.560Z,96.23
2019-01-13T09:39:36.258Z,96.46
2019-01-13T09:44:45.169Z,96.87
2019-01-13T09:49:57.316Z,97.04
2019-01-13T09:55:07.143Z,97.26
2019-01-13T10:00:30.649Z,97.41
2019-01-13T10:05:40.531Z,97.66
2019-01-13T10:10:53.701Z,97.84
2019-01-13T10:16:05.186Z,97.98
2019-01-13T10:21:14.084Z,98.08
2019-01-13T10:26:25.315Z,98.05
2019-01-13T10:31:34.275Z,97.50
2019-01-13T10:36:44.035Z,97.58
2019-01-13T10:41:52.200Z,97.83
2019-01-13T10:47:05.168Z,98.10
2019-01-13T10:52:16.098Z,98.00
2019-01-13T10:57:25.450Z,98.14
2019-01-13T11:02:37.041Z,97.73
2019-01-13T11:07:49.192Z,98.09
2019-01-13T11:12:56.004Z,97.96
2019-01-13T11:18:07.655Z,97.79
2019-01-13T11:23:18.416Z,98.18
2019-01-13T11:28:27.300Z,97.86
2019-01-13T11:33:41.157Z,97.87
2019-01-13T11:38:51.855Z,97.63
2019-01-13T11:44:00.455Z,98.04
2019-01-13T11:49:13.291Z,97.98
2019-01-13T11:54:23.978Z,97.46
2019-01-13T11:59:33.510Z,97.49
2019-01-13T12:04:43.234Z,97.57
2019-01-13T12:09:51.719Z,97.50
2019-01-13T12:14:59.270Z,97.45
2019-01-13T12:20:12.615Z,97.01
2019-01-13T12:25:25.342Z,97.45
2019-01-13T12:30:35.609Z,96.91
2019-01-13T12:35:45.835Z,97.00
2019-01-13T12:40:54.212Z,96.74
2019-01-13T12:46:05.829Z,96.43
2019-01-13T12:51:14.555Z,96.65
2019-01-13T12:56:24.162Z,95.82
2019-01-13T13:01:32.622Z,95.45
2019-01-13T13:06:43.267Z,95.10
2019-01-13T13:11:54.402Z,95.09
2019-01-13T13:17:06.274Z,94.80
2019-01-13T13:22:14.179Z,95.29
2019-01-13T13:27:26.662Z,95.03
2019-01-13T13:32:39.331Z,95.26
2019-01-13T13:37:50.975Z,95.21
2019-01-13T13:43:04.451Z,95.66
2019-01-13T13:48:16.068Z,95.99
2019-01-13T13:53:29.503Z,95.67
2019-01-13T13:58:44.997Z,95.48
2019-01-13T14:03:56.220Z,95.72
2019-01-13T14:09:06.957Z,95.37
2019-01-13T14:14:16.404Z,95.03
2019-01-13T14:19:28.933Z,96.52
2019-01-13T14:24:39.694Z,95.08
2019-01-13T14:29:47.415Z,95.23
2019-01-13T14:35:00.370Z,94.82
2019-01-13T14:40:14.566Z,94.22
2019-01-13T14:45:24.377Z,94.19
2019-01-13T14:50:34.851Z,93.87
2019-01-13T14:55:44.581Z,92.85
2019-01-13T15:00:54.361Z,92.22
2019-01-13T15:06:06.025Z,92.58
2019-01-13T15:11:19.570Z,92.00
2019-01-13T15:16:32.881Z,91.78
2019-01-13T15:21:45.697Z,92.02
2019-01-13T15:26:57.352Z,91.47
2019-01-13T15:32:05.603Z,90.46
2019-01-13T15:37:15.396Z,90.54
2019-01-13T15:42:27.495Z,90.55
2019-01-13T15:47:37.831Z,90.31
2019-01-13T15:52:50.448Z,90.60
2019-01-13T15:58:03.528Z,89.12
2019-01-13T16:03:14.722Z,89.33
2019-01-13T16:08:27.346Z,89.56
2019-01-13T16:13:39.803Z,89.42
2019-01-13T16:18:55.052Z,89.23
2019-01-13T16:24:06.633Z,89.23
2019-01-13T16:29:20.076Z,89.04
2019-01-13T16:34:30.751Z,88.66
2019-01-13T16:39:39.203Z,89.16
2019-01-13T16:44:48.059Z,90.03
2019-01-13T16:49:57.911Z,90.29
2019-01-13T16:55:05.411Z,90.18
2019-01-13T17:00:22.216Z,90.65
2019-01-13T17:05:31.098Z,91.71
2019-01-13T17:10:41.472Z,89.16
2019-01-13T17:15:55.232Z,89.16
2019-01-13T17:21:01.462Z,90.02
2019-01-13T17:26:13.960Z,91.94
2019-01-13T17:31:27.813Z,92.64
2019-01-13T17:36:41.610Z,93.48
2019-01-13T17:41:50.062Z,94.01
2019-01-13T17:46:59.852Z,93.27
2019-01-13T17:52:05.925Z,93.21
2019-01-13T17:57:16.323Z,93.24
2019-01-13T18:02:23.615Z,93.39
2019-01-13T18:07:33.057Z,93.59
2019-01-13T18:12:43.661Z,93.46
2019-01-13T18:17:53.936Z,93.99
2019-01-13T18:23:06.437Z,94.01
2019-01-13T18:28:13.910Z,93.62
2019-01-13T18:33:23.662Z,93.39
2019-01-13T18:38:32.566Z,93.12
2019-01-13T18:43:43.297Z,91.94
2019-01-13T18:48:51.907Z,92.85
2019-01-13T18:54:01.539Z,92.31
2019-01-13T18:59:10.366Z,92.58
2019-01-13T19:04:17.871Z,92.06
2019-01-13T19:09:28.352Z,91.75
2019-01-13T19:14:37.866Z,91.06
2019-01-13T19:19:58.784Z,91.09
2019-01-13T19:25:09.768Z,90.33
2019-01-13T19:30:17.067Z,90.02
2019-01-13T19:35:23.497Z,89.47
2019-01-13T19:40:30.564Z,89.51
2019-01-13T19:45:38.848Z,89.06
2019-01-13T19:50:46.949Z,88.29
2019-01-13T19:55:53.155Z,87.29
2019-01-13T20:01:00.244Z,86.49
2019-01-13T20:06:13.216Z,85.89
2019-01-13T20:11:21.002Z,85.77
2019-01-13T20:16:28.037Z,86.46
2019-01-13T20:21:34.422Z,84.88
2019-01-13T20:26:43.172Z,84.03
2019-01-13T20:31:52.837Z,84.66
2019-01-13T20:37:02.359Z,84.78
2019-01-13T20:42:14.049Z,84.71
2019-01-13T20:47:23.133Z,84.76
2019-01-13T20:52:35.939Z,84.07
2019-01-13T20:57:45.119Z,82.90
2019-01-13T21:02:56.301Z,84.12
2019-01-13T21:08:04.211Z,83.84
2019-01-13T21:13:11.340Z,82.80
2019-01-13T21:18:21.563Z,84.18
2019-01-13T21:23:28.932Z,84.16
2019-01-13T21:28:39.850Z,83.23
2019-01-13T21:33:46.943Z,83.80
2019-01-13T21:38:54.298Z,83.77
2019-01-13T21:44:01.549Z,84.17
2019-01-13T21:49:11.350Z,84.19
2019-01-13T21:54:18.934Z,83.94
2019-01-13T21:59:26.885Z,83.34
2019-01-13T22:04:36.575Z,83.79
2019-01-13T22:09:42.025Z,84.03
2019-01-13T22:14:49.683Z,83.58
2019-01-13T22:19:59.202Z,85.03
2019-01-13T22:25:07.822Z,84.53
2019-01-13T22:30:18.224Z,86.10
2019-01-13T22:35:25.615Z,87.89
2019-01-13T22:40:32.959Z,91.13
2019-01-13T22:45:41.182Z,91.13
2019-01-13T22:50:49.415Z,91.38
2019-01-13T22:55:57.583Z,92.29
2019-01-13T23:01:33.761Z,91.55
2019-01-13T23:06:43.174Z,92.31
2019-01-13T23:11:51.083Z,92.31
2019-01-13T23:16:59.778Z,92.55
2019-01-13T23:22:07.485Z,92.46
2019-01-13T23:27:17.856Z,92.19
2019-01-13T23:32:27.746Z,92.71
2019-01-13T23:37:36.359Z,92.70
2019-01-13T23:42:45.910Z,92.29
2019-01-13T23:47:54.948Z,92.86
2019-01-13T23:53:01.836Z,91.46
2019-01-13T23:58:12.845Z,92.99
